Latest Weather Observations for Marree Airport

IDS60801

Issued at 6:05 am CDT Monday 24 November 2014 (issued every 30 minutes, with the page automatically refreshed every 10 minutes)

About weather observations | Map of weather stations | Latest weather observations for SA | Other Formats
Station Details ID: 017126 Name: MARREE AERO Lat: -29.66 Lon: 138.07 Height: 50.0 m
Data from the previous 72 hours. | See also: Recent months for locations in South Australia
Date/Time
CDT
Temp
°C
App
Temp
°C
Dew
Point
Rel
Hum
%
Delta-T
°C
Wind Press
QNH
hPa
Press
MSL
hPa
Rain
since 9 am
mm
Dir
 
Spd
km/h
Gust
km/h
Spd
kts
Gust
kts
24/06:00am 25.8 25.0 17.2 59 5.4 ENE 17 20 9 11 1008.2 1008.0 0.2
24/05:30am 26.2 23.8 17.3 58 5.6 ENE 26 37 14 20 1007.9 - 0.2
24/05:00am 26.8 21.8 17.0 55 6.1 ENE 39 54 21 29 1007.8 - 0.2
24/04:38am 27.7 23.9 16.6 50 6.9 NE 32 50 17 27 1007.5 - 0.2
24/04:30am 28.2 24.9 16.1 47 7.5 NE 28 41 15 22 1007.7 - 0.2
24/04:00am 26.5 25.9 18.9 63 4.9 NE 20 26 11 14 1007.5 - 0.2
24/03:30am 26.6 26.9 18.7 62 5.1 E 15 17 8 9 1008.1 - 0.2
24/03:25am 26.6 28.0 18.7 62 5.1 ESE 9 17 5 9 1008.1 - 0.2
24/03:00am 26.6 26.5 20.0 67 4.3 SSW 20 24 11 13 1010.1 1009.9 0.0
24/02:30am 27.8 26.4 19.6 61 5.3 SSW 26 35 14 19 1010.3 - 0.0
24/02:00am 30.9 26.6 13.2 34 10.6 S 28 35 15 19 1009.5 - 0.0
24/01:30am 31.4 27.5 12.2 30 11.3 SSE 24 33 13 18 1008.9 - 0.0
24/01:00am 32.6 31.0 11.7 28 12.3 SSE 11 15 6 8 1008.7 - 0.0
24/12:30am 32.9 32.0 12.5 29 12.2 E 9 11 5 6 1008.5 - 0.0
24/12:00am 33.4 31.3 12.4 28 12.6 E 15 19 8 10 1008.6 1008.4 0.0
 
Date/Time
CDT
Temp
°C
App
Temp
°C
Dew
Point
Rel
Hum
%
Delta-T
°C
Wind Press
QNH
hPa
Press
MSL
hPa
Rain
since 9 am
mm
Dir
 
Spd
km/h
Gust
km/h
Spd
kts
Gust
kts
23/11:30pm 33.5 30.7 12.5 28 12.6 ENE 19 26 10 14 1008.7 - 0.0
23/11:00pm 33.4 31.7 12.4 28 12.5 ESE 13 19 7 10 1009.1 - 0.0
23/10:30pm 33.5 29.0 12.5 28 12.6 ENE 28 39 15 21 1009.1 - 0.0
23/10:00pm 32.4 29.8 13.1 31 11.6 S 19 20 10 11 1008.9 - 0.0
23/09:30pm 32.6 29.1 13.3 31 11.6 ESE 24 33 13 18 1008.2 - 0.0
23/09:00pm 32.6 27.2 13.8 32 11.4 E 35 46 19 25 1007.5 1007.3 0.0
23/08:30pm 33.0 26.5 14.1 32 11.6 ESE 41 54 22 29 1006.8 - 0.0
23/08:00pm 34.1 29.3 14.6 31 12.1 ESE 33 46 18 25 1006.5 - 0.0
23/07:30pm 37.1 33.5 13.2 24 14.6 SSE 24 32 13 17 1005.8 - 0.0
23/07:01pm 38.1 33.2 11.2 20 16.1 S 28 46 15 25 1005.3 - 0.0
23/07:00pm 38.2 32.9 11.3 20 16.1 S 30 46 16 25 1005.3 - 0.0
23/06:52pm 38.1 31.1 11.2 20 16.1 SSW 39 48 21 26 1004.8 - 0.0
23/06:30pm 39.7 33.9 10.9 18 17.2 NW 32 39 17 21 1004.8 - 0.0
23/06:00pm 40.8 35.4 10.9 17 18.0 NW 30 44 16 24 1004.6 1004.4 0.0
23/05:57pm 41.0 35.4 10.2 16 18.3 NW 30 44 16 24 1004.5 - 0.0
23/05:30pm 41.4 33.9 9.6 15 18.8 NNW 39 54 21 29 1004.4 - 0.0
23/05:15pm 42.1 36.2 9.1 14 19.4 NNW 30 48 16 26 1004.3 - 0.0
23/05:00pm 42.7 37.6 10.6 15 19.3 WNW 28 43 15 23 1004.5 - 0.0
23/04:52pm 43.1 37.8 9.9 14 19.8 WNW 28 44 15 24 1004.5 - 0.0
23/04:44pm 42.5 35.6 10.4 15 19.3 NNW 37 44 20 24 1004.5 - 0.0
23/04:30pm 42.2 38.5 10.2 15 19.1 W 20 41 11 22 1004.7 - 0.0
23/04:00pm 42.5 37.7 10.4 15 19.3 NNW 26 39 14 21 1005.2 - 0.0
23/03:30pm 40.9 36.7 11.0 17 18.0 N 24 39 13 21 1005.5 - 0.0
23/03:00pm 41.6 36.5 10.7 16 18.6 N 28 37 15 20 1006.0 1005.8 0.0
23/02:30pm 40.7 36.2 10.0 16 18.2 N 24 43 13 23 1006.1 - 0.0
23/02:00pm 40.3 35.9 10.5 17 17.8 N 24 44 13 24 1006.9 - 0.0
23/01:30pm 40.4 35.1 9.7 16 18.1 NE 28 39 15 21 1007.3 - 0.0
23/01:00pm 39.7 34.7 10.9 18 17.2 NE 28 41 15 22 1007.5 - 0.0
23/12:30pm 40.0 36.8 11.2 18 17.3 E 19 32 10 17 1008.1 - 0.0
23/12:00pm 38.2 35.8 11.3 20 16.1 SSE 15 20 8 11 1009.0 1008.8 0.0
23/11:30am 36.0 33.7 11.6 23 14.5 S 15 24 8 13 1009.9 - 0.0
23/11:00am 36.9 34.8 12.4 23 14.8 S 15 24 8 13 1010.1 - 0.0
23/10:30am 35.1 33.5 11.5 24 14.0 SSW 11 17 6 9 1010.5 - 0.0
23/10:00am 34.5 33.7 11.6 25 13.6 S 7 17 4 9 1010.7 - 0.0
23/09:30am 33.5 33.1 12.5 28 12.6 ESE 6 13 3 7 1010.6 - 0.0
23/09:00am 31.4 30.7 13.2 33 10.9 SSE 9 13 5 7 1010.2 1010.0 0.4
23/08:30am 29.1 28.3 12.9 37 9.6 WSW 9 13 5 7 1010.3 - 0.4
23/08:00am 27.3 27.6 13.3 42 8.3 E 4 9 2 5 1009.8 - 0.4
23/07:30am 26.9 26.7 12.9 42 8.2 E 6 9 3 5 1009.7 - 0.4
23/07:00am 26.2 24.2 12.6 43 7.9 ESE 15 19 8 10 1008.9 - 0.4
23/06:30am 25.7 23.9 12.2 43 7.8 SE 13 15 7 8 1008.3 - 0.4
23/06:00am 25.9 24.3 11.6 40 8.2 SW 11 17 6 9 1007.9 1007.7 0.4
23/05:30am 26.0 24.4 11.4 40 8.3 S 11 15 6 8 1007.3 - 0.4
23/05:00am 26.4 22.9 10.9 38 8.8 SSW 20 26 11 14 1007.4 - 0.4
23/04:30am 26.6 24.6 10.3 36 9.1 S 11 15 6 8 1007.3 - 0.4
23/04:00am 27.2 25.3 10.4 35 9.4 S 11 15 6 8 1006.9 - 0.4
23/03:30am 27.7 24.3 11.3 36 9.4 SSE 20 26 11 14 1006.4 - 0.4
23/03:00am 28.3 24.9 11.4 35 9.7 SSE 20 26 11 14 1006.2 1006.0 0.4
23/02:30am 29.2 26.2 12.6 36 9.8 S 20 26 11 14 1006.3 - 0.4
23/02:00am 30.5 27.8 12.9 34 10.5 SSE 19 22 10 12 1006.3 - 0.4
23/01:30am 30.1 30.7 15.8 42 8.9 NNW 7 9 4 5 1006.2 - 0.4
23/01:00am 31.1 31.0 13.8 34 10.5 N 7 15 4 8 1006.4 - 0.4
23/12:30am 31.8 33.1 14.0 34 10.8 CALM 0 0 0 0 1006.3 - 0.4
23/12:00am 32.1 30.8 13.8 33 11.1 W 13 28 7 15 1007.5 1007.3 0.4
 
Date/Time
CDT
Temp
°C
App
Temp
°C
Dew
Point
Rel
Hum
%
Delta-T
°C
Wind Press
QNH
hPa
Press
MSL
hPa
Rain
since 9 am
mm
Dir
 
Spd
km/h
Gust
km/h
Spd
kts
Gust
kts
22/11:45pm 32.6 27.9 13.3 31 11.6 W 30 37 16 20 1008.2 - 0.4
22/11:30pm 33.2 26.8 13.3 30 12.0 WNW 39 61 21 33 1009.0 - 0.2
22/11:21pm 33.6 29.3 13.1 29 12.4 W 28 56 15 30 1009.2 - 0.2
22/11:00pm 34.9 31.9 11.9 24 13.7 W 19 22 10 12 1009.2 - 0.2
22/10:35pm 36.4 30.7 8.3 18 16.0 SW 28 63 15 34 1008.6 - 0.2
22/10:30pm 34.6 31.1 12.3 26 13.4 NNW 22 28 12 15 1008.5 - 0.2
22/10:00pm 33.6 31.7 14.1 30 11.9 NNE 17 26 9 14 1007.8 - 0.2
22/09:50pm 36.2 30.9 9.7 20 15.4 NNE 28 76 15 41 1007.4 - 0.2
22/09:49pm 36.5 30.1 9.2 19 15.7 N 33 76 18 41 1007.5 - 0.2
22/09:43pm 35.5 26.0 9.8 21 14.9 NW 50 76 27 41 1008.3 - 0.2
22/09:30pm 33.4 22.5 13.5 30 12.1 NNW 63 107 34 58 1006.9 - 0.2
22/09:26pm 36.1 22.7 9.6 20 15.3 NNW 70 107 38 58 1006.5 - 0.2
22/09:25pm 35.5 24.1 11.8 24 14.1 NNW 63 80 34 43 1006.7 - 0.2
22/09:23pm 31.9 28.1 15.8 38 10.0 NNW 30 50 16 27 1006.8 - 0.2
22/09:00pm 32.5 27.3 14.6 34 11.0 N 35 44 19 24 1006.8 1006.6 0.2
22/08:45pm 31.0 26.0 17.0 43 8.9 N 39 46 21 25 1006.7 - 0.2
22/08:30pm 32.9 25.8 15.0 34 11.1 NNW 46 72 25 39 1007.1 - 0.2
22/08:25pm 33.0 27.6 15.9 35 10.7 NW 39 65 21 35 1007.3 - 0.0
22/08:24pm 34.6 29.6 15.0 31 12.2 NW 35 50 19 27 1007.1 - 0.0
22/08:00pm 33.2 33.3 17.4 39 10.1 N 13 26 7 14 1006.0 - 0.0
22/07:30pm 34.6 32.2 15.5 32 12.0 SE 22 26 12 14 1005.2 - 0.0
22/07:00pm 36.9 32.3 11.0 21 15.4 S 26 35 14 19 1004.5 - 0.0
22/06:44pm 37.5 36.1 12.2 22 15.3 WNW 11 39 6 21 1004.6 - 0.0
22/06:30pm 37.1 29.0 14.4 26 14.1 WSW 50 70 27 38 1003.7 - 0.0
22/06:28pm 39.3 29.6 8.9 16 17.6 WSW 50 70 27 38 1003.6 - 0.0
22/06:22pm 40.4 31.3 6.7 13 19.0 W 44 57 24 31 1003.9 - 0.0
22/06:19pm 41.5 33.6 6.4 12 19.8 WNW 37 50 20 27 1003.9 - 0.0
22/06:00pm 42.5 36.6 5.9 11 20.7 NNW 26 41 14 22 1003.3 1003.1 0.0
22/05:30pm 42.3 35.2 5.7 11 20.6 W 32 59 17 32 1003.6 - 0.0
22/05:26pm 42.6 34.3 5.9 11 20.7 WNW 39 59 21 32 1003.7 - 0.0
22/05:24pm 43.2 32.6 5.0 10 21.3 NW 50 59 27 32 1003.3 - 0.0
22/05:00pm 42.5 38.3 5.9 11 20.6 W 17 33 9 18 1003.6 - 0.0
22/04:42pm 43.2 36.4 5.0 10 21.3 W 30 48 16 26 1003.5 - 0.0
22/04:30pm 42.8 34.5 6.1 11 20.8 W 39 52 21 28 1003.6 - 0.0
22/04:27pm 42.9 34.6 6.2 11 20.8 W 39 52 21 28 1003.7 - 0.0
22/04:00pm 43.6 34.8 3.8 9 21.9 WNW 39 50 21 27 1003.7 - 0.0
22/03:30pm 44.0 34.6 5.6 10 21.7 NW 44 65 24 35 1003.9 - 0.0
22/03:03pm 43.7 34.5 5.4 10 21.6 NW 43 61 23 33 1004.3 - 0.0
22/03:00pm 43.8 34.4 5.5 10 21.7 NW 44 61 24 33 1004.3 1004.1 0.0
22/02:30pm 44.5 35.2 6.0 10 21.9 NW 44 72 24 39 1004.6 - 0.0
22/02:00pm 43.4 33.9 6.5 11 21.1 NW 46 65 25 35 1005.2 - 0.0
22/01:38pm 42.7 32.6 7.3 12 20.4 NW 50 70 27 38 1005.4 - 0.0
22/01:30pm 42.5 33.0 8.3 13 19.9 NW 48 63 26 34 1005.6 - 0.0
22/01:10pm 42.8 33.0 8.5 13 20.1 NW 50 69 27 37 1005.8 - 0.0
22/01:00pm 42.7 34.0 8.4 13 20.1 WNW 44 59 24 32 1006.0 - 0.0
22/12:30pm 41.3 33.2 8.5 14 19.1 NW 41 56 22 30 1006.4 - 0.0
22/12:04pm 41.1 33.6 9.3 15 18.7 NW 39 59 21 32 1006.7 - 0.0
22/12:00pm 40.8 33.6 9.1 15 18.6 NW 37 50 20 27 1006.8 1006.6 0.0
22/11:43am 40.3 31.8 8.7 15 18.4 NW 43 54 23 29 1007.0 - 0.0
22/11:30am 40.2 32.7 9.6 16 18.0 NNW 39 54 21 29 1007.1 - 0.0
22/11:00am 39.2 31.8 9.7 17 17.3 N 39 56 21 30 1007.2 - 0.0
22/10:30am 38.0 31.3 9.6 18 16.6 N 35 46 19 25 1007.3 - 0.0
22/10:00am 36.3 30.2 9.8 20 15.4 NNE 32 41 17 22 1007.5 - 0.0
22/09:30am 34.9 28.7 10.0 22 14.4 NNE 33 39 18 21 1007.8 - 0.0
22/09:00am 32.8 28.0 10.2 25 13.0 NNE 26 35 14 19 1008.1 1007.9 0.0
22/08:30am 31.9 27.8 10.0 26 12.5 NNE 22 39 12 21 1008.2 - 0.0
22/08:00am 31.5 28.4 10.2 27 12.2 NE 17 24 9 13 1008.1 - 0.0
22/07:30am 30.1 28.2 10.6 30 11.2 E 11 13 6 7 1007.8 - 0.0
22/07:00am 27.3 25.9 9.6 33 9.8 E 7 9 4 5 1007.4 - 0.0
22/06:30am 26.6 24.5 9.9 35 9.3 ENE 11 13 6 7 1006.8 - 0.0
22/06:00am 26.4 24.6 9.3 34 9.4 SE 9 11 5 6 1006.6 1006.4 0.0
22/05:30am 28.0 25.9 9.8 32 10.2 E 11 15 6 8 1006.1 - 0.0
22/05:00am 28.3 25.5 10.0 32 10.3 E 15 19 8 10 1005.7 - 0.0
22/04:30am 28.8 25.4 10.5 32 10.4 E 19 22 10 12 1005.4 - 0.0
22/04:00am 28.6 25.6 10.8 33 10.1 E 17 20 9 11 1005.4 - 0.0
22/03:30am 26.1 22.8 8.1 32 9.7 ESE 15 17 8 9 1005.5 - 0.0
22/03:00am 26.1 22.7 7.7 31 9.9 SE 15 17 8 9 1006.1 1005.9 0.0
22/02:30am 26.3 23.3 7.8 31 9.9 SSE 13 15 7 8 1006.5 - 0.0
22/02:00am 26.2 22.8 7.7 31 9.9 SSE 15 17 8 9 1006.9 - 0.0
22/01:30am 26.4 23.1 7.9 31 9.9 SE 15 17 8 9 1007.3 - 0.0
22/01:00am 27.1 23.4 8.0 30 10.3 SSE 17 17 9 9 1007.7 - 0.0
22/12:30am 27.5 23.8 7.9 29 10.6 SSE 17 19 9 10 1008.0 - 0.0
22/12:00am 28.5 24.9 8.2 28 11.1 SSE 17 20 9 11 1008.5 1008.3 0.0
 
Date/Time
CDT
Temp
°C
App
Temp
°C
Dew
Point
Rel
Hum
%
Delta-T
°C
Wind Press
QNH
hPa
Press
MSL
hPa
Rain
since 9 am
mm
Dir
 
Spd
km/h
Gust
km/h
Spd
kts
Gust
kts
21/11:30pm 28.9 25.4 8.6 28 11.2 SSE 17 19 9 10 1008.8 - 0.0
21/11:00pm 29.7 25.7 8.2 26 11.8 SE 19 20 10 11 1008.9 - 0.0
21/10:30pm 30.7 26.5 8.4 25 12.3 SSE 20 22 11 12 1009.0 - 0.0
21/10:00pm 31.4 28.0 9.0 25 12.6 SSE 17 20 9 11 1009.0 - 0.0
21/09:30pm 32.2 28.2 9.1 24 13.0 SSE 20 26 11 14 1008.7 - 0.0
21/09:00pm 33.1 29.1 9.2 23 13.6 SSE 20 24 11 13 1008.5 1008.3 0.0
21/08:30pm 34.1 30.0 10.0 23 13.9 SSE 22 30 12 16 1008.2 - 0.0
21/08:00pm 35.8 34.7 12.1 24 14.2 SSW 9 15 5 8 1007.9 - 0.0
21/07:30pm 36.8 36.4 12.3 23 14.8 W 6 9 3 5 1007.8 - 0.0
21/07:00pm 36.9 36.5 12.4 23 14.8 N 6 9 3 5 1007.7 - 0.0
21/06:30pm 37.7 36.7 12.3 22 15.4 WSW 9 17 5 9 1007.5 - 0.0
21/06:00pm 36.7 34.9 12.2 23 14.8 WSW 13 20 7 11 1007.5 1007.3 0.0
21/05:30pm 38.0 36.0 12.6 22 15.5 WSW 15 24 8 13 1007.5 - 0.0
21/05:00pm 36.9 35.6 12.4 23 14.8 NNW 11 20 6 11 1007.8 - 0.0
21/04:30pm 36.8 35.8 12.3 23 14.8 W 9 19 5 10 1008.2 - 0.0
21/04:00pm 37.2 35.2 12.6 23 14.9 WNW 15 22 8 12 1008.6 - 0.0
21/03:30pm 37.1 34.7 12.5 23 14.9 W 17 30 9 16 1009.1 - 0.0
21/03:00pm 36.4 35.1 12.6 24 14.4 NE 11 17 6 9 1009.5 1009.3 0.0
21/02:30pm 35.8 33.4 12.7 25 14.0 WNW 17 22 9 12 1010.0 - 0.0
21/02:00pm 35.2 33.4 12.2 25 13.8 W 13 22 7 12 1010.5 - 0.0
21/01:30pm 35.0 32.6 12.6 26 13.5 NNW 17 24 9 13 1011.0 - 0.0
21/01:00pm 34.8 33.5 12.5 26 13.4 SW 11 20 6 11 1011.6 - 0.0
21/12:30pm 33.3 32.3 12.3 28 12.5 N 9 17 5 9 1011.9 - 0.0
21/12:00pm 33.2 32.7 12.2 28 12.5 NNE 6 13 3 7 1012.3 1012.0 0.0
21/11:30am 31.9 30.3 12.7 31 11.4 E 13 19 7 10 1012.6 - 0.0
21/11:00am 32.1 30.1 12.8 30 11.5 SSE 15 20 8 11 1012.6 - 0.0
21/10:30am 30.6 27.7 13.0 34 10.5 S 20 28 11 15 1012.8 - 0.0
21/10:00am 29.7 25.7 13.0 35 9.9 S 26 33 14 18 1012.9 - 0.0
21/09:30am 28.6 24.3 13.3 39 9.1 S 28 33 15 18 1012.9 - 0.0
21/09:00am 27.3 23.5 13.6 43 8.1 SSE 26 32 14 17 1013.1 1012.8 0.0
21/08:30am 26.5 22.0 13.9 45 7.5 SSE 30 37 16 20 1012.8 - 0.0
21/08:00am 25.4 21.6 14.8 52 6.4 SSE 28 35 15 19 1012.8 - 0.0
21/07:30am 24.1 20.1 15.3 58 5.3 S 30 39 16 21 1012.3 - 0.0
21/07:00am 23.2 19.6 15.3 61 4.7 S 28 33 15 18 1011.9 - 0.0
21/06:30am 23.0 19.7 15.1 61 4.7 S 26 33 14 18 1011.5 - 0.0

Other Formats:

Comma delimited format used in spreadsheet applications
http://www.bom.gov.au/fwo/IDS60801/IDS60801.95480.axf

JavaScript Object Notation format (JSON) in row-major order
http://www.bom.gov.au/fwo/IDS60801/IDS60801.95480.json